createdAt,value
2023-04-02T00:02:21.038Z,101624.16
2023-04-02T00:05:19.707Z,101622.25
2023-04-02T00:07:53.033Z,101634.69
2023-04-02T00:10:32.893Z,101644.09
2023-04-02T00:13:09.563Z,101648.50
2023-04-02T00:15:37.932Z,101653.41
2023-04-02T00:18:06.061Z,101651.66
2023-04-02T00:20:40.836Z,101647.28
2023-04-02T00:23:12.263Z,101663.81
2023-04-02T00:25:43.182Z,101653.56
2023-04-02T00:28:15.338Z,101657.97
2023-04-02T00:30:55.825Z,101651.97
2023-04-02T00:33:26.773Z,101648.00
2023-04-02T00:35:55.070Z,101640.53
2023-04-02T00:38:31.850Z,101638.56
2023-04-02T00:41:01.973Z,101650.75
2023-04-02T00:43:31.479Z,101656.53
2023-04-02T00:46:05.215Z,101678.41
2023-04-02T00:48:31.929Z,101688.41
2023-04-02T00:51:08.154Z,101686.78
2023-04-02T00:53:37.221Z,101687.41
2023-04-02T00:56:12.869Z,101693.50
2023-04-02T00:58:40.598Z,101696.88
2023-04-02T01:01:17.804Z,101683.09
2023-04-02T01:03:59.976Z,101684.19
2023-04-02T01:06:31.159Z,101686.44
2023-04-02T01:09:17.116Z,101690.94
2023-04-02T01:12:02.245Z,101695.91
2023-04-02T01:15:06.245Z,101704.81
2023-04-02T01:17:38.541Z,101702.34
2023-04-02T01:20:07.943Z,101698.47
2023-04-02T01:22:51.818Z,101700.94
2023-04-02T01:25:26.191Z,101694.81
2023-04-02T01:28:05.169Z,101703.09
2023-04-02T01:30:35.591Z,101701.44
2023-04-02T01:33:03.639Z,101711.34
2023-04-02T01:35:36.461Z,101687.66
2023-04-02T01:38:21.225Z,101686.53
2023-04-02T01:41:03.989Z,101705.84
2023-04-02T01:43:46.598Z,101701.16
2023-04-02T01:46:32.069Z,101704.91
2023-04-02T01:49:04.299Z,101693.59
2023-04-02T01:51:36.224Z,101703.81
2023-04-02T01:54:05.114Z,101693.06
2023-04-02T01:56:32.244Z,101705.84
2023-04-02T01:59:00.466Z,101718.50
2023-04-02T02:02:02.712Z,101737.50
2023-04-02T02:04:31.073Z,101744.34
2023-04-02T02:07:00.930Z,101738.22
2023-04-02T02:09:30.785Z,101742.63
2023-04-02T02:11:58.967Z,101745.91
2023-04-02T02:14:27.707Z,101751.59
2023-04-02T02:16:56.770Z,101756.50
2023-04-02T02:19:26.201Z,101754.91
2023-04-02T02:21:56.839Z,101771.94
2023-04-02T02:24:28.634Z,101773.59
2023-04-02T02:27:16.555Z,101782.97
2023-04-02T02:29:47.051Z,101782.16
2023-04-02T02:32:16.434Z,101792.91
2023-04-02T02:34:49.324Z,101795.34
2023-04-02T02:37:23.493Z,101799.44
2023-04-02T02:39:56.306Z,101802.50
2023-04-02T02:42:36.937Z,101802.50
2023-04-02T02:45:11.334Z,101804.72
2023-04-02T02:47:40.061Z,101809.72
2023-04-02T02:50:12.288Z,101809.72
2023-04-02T02:52:39.235Z,101809.72
2023-04-02T02:55:14.428Z,101824.34
2023-04-02T02:57:47.830Z,101820.47
2023-04-02T03:02:41.576Z,101819.13
2023-04-02T03:05:09.949Z,101821.91
2023-04-02T03:07:37.429Z,101822.69
2023-04-02T03:10:16.700Z,101836.19
2023-04-02T03:13:15.402Z,101829.03
2023-04-02T03:16:11.873Z,101832.91
2023-04-02T03:18:53.500Z,101831.56
2023-04-02T03:21:39.089Z,101832.97
2023-04-02T03:24:11.219Z,101855.13
2023-04-02T03:26:46.052Z,101845.50
2023-04-02T03:29:25.207Z,101850.19
2023-04-02T03:32:00.590Z,101853.28
2023-04-02T03:34:34.423Z,101862.38
2023-04-02T03:37:22.729Z,101867.88
2023-04-02T03:39:56.283Z,101868.16
2023-04-02T03:42:26.248Z,101867.38
2023-04-02T03:45:17.960Z,101868.47
2023-04-02T03:47:56.840Z,101870.13
2023-04-02T03:50:36.830Z,101856.94
2023-04-02T03:53:05.441Z,101860.78
2023-04-02T03:55:36.398Z,101871.81
2023-04-02T03:58:18.865Z,101875.72
2023-04-02T04:01:04.045Z,101876.81
2023-04-02T04:03:39.490Z,101872.41
2023-04-02T04:06:10.361Z,101886.75
2023-04-02T04:08:50.387Z,101880.41
2023-04-02T04:11:22.805Z,101879.25
2023-04-02T04:13:58.597Z,101877.34
2023-04-02T04:16:46.325Z,101865.47
2023-04-02T04:19:29.952Z,101871.81
2023-04-02T04:22:18.093Z,101871.81
2023-04-02T04:24:47.716Z,101871.81
2023-04-02T04:27:54.316Z,101877.34
2023-04-02T04:30:24.549Z,101882.34
2023-04-02T04:32:58.817Z,101876.31
2023-04-02T04:35:31.788Z,101881.81
2023-04-02T04:38:22.009Z,101886.50
2023-04-02T04:40:54.303Z,101887.91
2023-04-02T04:43:28.633Z,101896.47
2023-04-02T04:46:13.408Z,101894.63
2023-04-02T04:48:58.160Z,101902.38
2023-04-02T04:51:34.217Z,101900.13
2023-04-02T04:54:01.130Z,101892.16
2023-04-02T04:56:30.351Z,101890.53
2023-04-02T04:59:07.357Z,101901.84
2023-04-02T05:01:39.096Z,101895.19
2023-04-02T05:04:14.829Z,101905.13
2023-04-02T05:06:49.126Z,101915.84
2023-04-02T05:09:22.675Z,101915.00
2023-04-02T05:12:15.610Z,101920.53
2023-04-02T05:14:54.946Z,101929.94
2023-04-02T05:17:30.930Z,101927.44
2023-04-02T05:20:16.566Z,101927.16
2023-04-02T05:22:51.034Z,101930.44
2023-04-02T05:25:27.388Z,101928.00
2023-04-02T05:28:06.370Z,101937.06
2023-04-02T05:30:38.981Z,101940.13
2023-04-02T05:33:25.712Z,101942.88
2023-04-02T05:35:58.848Z,101955.00
2023-04-02T05:38:32.697Z,101948.69
2023-04-02T05:41:27.878Z,101954.22
2023-04-02T05:44:03.818Z,101957.03
2023-04-02T05:46:35.896Z,101969.69
2023-04-02T05:49:06.925Z,101971.31
2023-04-02T05:51:43.695Z,101963.34
2023-04-02T05:54:37.832Z,101980.69
2023-04-02T05:57:11.510Z,101975.19
2023-04-02T05:59:43.448Z,101984.59
2023-04-02T06:02:25.736Z,101986.78
2023-04-02T06:04:58.305Z,101979.94
2023-04-02T06:07:46.560Z,101985.97
2023-04-02T06:10:19.448Z,101989.84
2023-04-02T06:12:46.075Z,101997.81
2023-04-02T06:15:17.437Z,102004.47
2023-04-02T06:17:51.203Z,102001.13
2023-04-02T06:20:21.281Z,101998.88
2023-04-02T06:23:06.353Z,102002.16
2023-04-02T06:25:52.786Z,102011.78
2023-04-02T06:28:27.086Z,102017.81
2023-04-02T06:31:01.816Z,102021.97
2023-04-02T06:33:28.630Z,102022.78
2023-04-02T06:35:56.365Z,102024.72
2023-04-02T06:38:27.793Z,102028.31
2023-04-02T06:41:05.731Z,102032.41
2023-04-02T06:43:47.096Z,102037.91
2023-04-02T06:46:25.890Z,102039.56
2023-04-02T06:49:02.493Z,102038.16
2023-04-02T06:51:32.758Z,102040.91
2023-04-02T06:53:59.365Z,102054.41
2023-04-02T06:56:32.512Z,102048.06
2023-04-02T06:58:59.286Z,102062.06
2023-04-02T07:01:29.554Z,102058.22
2023-04-02T07:03:57.144Z,102058.22
2023-04-02T07:06:23.828Z,102067.00
2023-04-02T07:08:50.734Z,102073.63
2023-04-02T07:11:21.379Z,102075.28
2023-04-02T07:13:49.360Z,102075.78
2023-04-02T07:16:28.063Z,102074.38
2023-04-02T07:18:55.959Z,102077.66
2023-04-02T07:21:22.699Z,102067.94
2023-04-02T07:23:49.372Z,102075.56
2023-04-02T07:26:20.305Z,102094.19
2023-04-02T07:28:46.972Z,102094.66
2023-04-02T07:31:17.871Z,102096.84
2023-04-02T07:33:45.147Z,102094.59
2023-04-02T07:36:19.081Z,102103.69
2023-04-02T07:38:46.392Z,102095.94
2023-04-02T07:41:14.015Z,102096.19
2023-04-02T07:43:41.807Z,102103.25
2023-04-02T07:46:10.054Z,102109.28
2023-04-02T07:48:36.922Z,102102.34
2023-04-02T07:51:03.767Z,102109.72
2023-04-02T07:53:35.644Z,102118.44
2023-04-02T07:56:04.505Z,102115.41
2023-04-02T07:58:32.577Z,102120.03
2023-04-02T08:01:01.801Z,102127.13
2023-04-02T08:03:29.116Z,102119.03
2023-04-02T08:05:58.275Z,102133.00
2023-04-02T08:08:26.085Z,102130.72
2023-04-02T08:10:52.748Z,102132.84
2023-04-02T08:13:19.415Z,102138.28
2023-04-02T08:15:46.186Z,102137.31
2023-04-02T08:18:12.813Z,102144.69
2023-04-02T08:20:39.626Z,102144.94
2023-04-02T08:23:15.396Z,102147.59
2023-04-02T08:25:42.188Z,102155.56
2023-04-02T08:28:08.871Z,102143.94
2023-04-02T08:30:35.750Z,102151.94
2023-04-02T08:33:02.892Z,102147.22
2023-04-02T08:35:29.988Z,102133.53
2023-04-02T08:37:56.717Z,102136.00
2023-04-02T08:40:36.479Z,102120.31
2023-04-02T08:43:40.982Z,102128.41
2023-04-02T08:46:38.520Z,102129.56
2023-04-02T08:49:13.994Z,102131.13
2023-04-02T08:51:41.892Z,102127.06
2023-04-02T08:54:23.715Z,102138.47
2023-04-02T08:57:00.868Z,102146.34
2023-04-02T08:59:27.483Z,102151.91
2023-04-02T09:02:03.211Z,102153.84
2023-04-02T09:04:31.868Z,102158.94
2023-04-02T09:07:00.795Z,102162.38
2023-04-02T09:09:28.159Z,102162.69
2023-04-02T09:12:04.061Z,102174.09
2023-04-02T09:14:53.007Z,102171.78
2023-04-02T09:17:22.183Z,102172.91
2023-04-02T09:19:55.542Z,102169.34
2023-04-02T09:22:25.350Z,102164.69
2023-04-02T09:24:54.131Z,102167.34
2023-04-02T09:27:23.949Z,102166.44
2023-04-02T09:30:00.973Z,102173.84
2023-04-02T09:32:33.697Z,102168.94
2023-04-02T09:35:29.783Z,102174.72
2023-04-02T09:38:19.975Z,102180.03
2023-04-02T09:40:57.040Z,102184.47
2023-04-02T09:43:29.884Z,102195.56
2023-04-02T09:45:56.509Z,102196.69
2023-04-02T09:48:34.202Z,102190.31
2023-04-02T09:51:22.105Z,102201.94
2023-04-02T09:54:02.576Z,102202.84
2023-04-02T09:56:34.948Z,102205.69
2023-04-02T09:59:16.647Z,102203.63
2023-04-02T10:01:48.012Z,102204.94
2023-04-02T10:04:44.664Z,102201.03
2023-04-02T10:07:34.800Z,102208.25
2023-04-02T10:10:32.606Z,102222.84
2023-04-02T10:13:27.202Z,102221.94
2023-04-02T10:16:03.368Z,102216.56
2023-04-02T10:18:35.688Z,102214.56
2023-04-02T10:21:04.584Z,102219.59
2023-04-02T10:23:31.922Z,102214.63
2023-04-02T10:26:09.690Z,102211.09
2023-04-02T10:29:07.240Z,102217.69
2023-04-02T10:31:47.256Z,102224.91
2023-04-02T10:34:24.945Z,102215.94
2023-04-02T10:37:39.685Z,102226.72
2023-04-02T10:40:12.394Z,102235.06
2023-04-02T10:42:44.871Z,102234.25
2023-04-02T10:45:17.591Z,102231.41
2023-04-02T10:47:50.433Z,102240.66
2023-04-02T10:50:36.023Z,102235.72
2023-04-02T10:53:13.820Z,102232.47
2023-04-02T10:56:04.875Z,102230.19
2023-04-02T10:58:35.129Z,102236.94
2023-04-02T11:01:08.108Z,102239.41
2023-04-02T11:03:41.630Z,102229.97
2023-04-02T11:06:21.311Z,102231.59
2023-04-02T11:08:50.840Z,102225.44
2023-04-02T11:11:23.675Z,102237.53
2023-04-02T11:14:21.020Z,102230.03
2023-04-02T11:16:53.219Z,102229.84
2023-04-02T11:19:19.708Z,102238.59
2023-04-02T11:21:58.817Z,102225.78
2023-04-02T11:24:30.337Z,102228.16
2023-04-02T11:27:12.243Z,102237.19
2023-04-02T11:29:47.014Z,102227.34
2023-04-02T11:32:25.229Z,102228.78
2023-04-02T11:35:05.778Z,102233.50
2023-04-02T11:37:44.821Z,102234.03
2023-04-02T11:40:11.765Z,102238.03
2023-04-02T11:42:40.547Z,102235.63
2023-04-02T11:45:28.562Z,102231.63
2023-04-02T11:48:01.320Z,102237.56
2023-04-02T11:50:34.454Z,102238.78
2023-04-02T11:53:06.741Z,102233.31
2023-04-02T11:55:35.144Z,102236.72
2023-04-02T11:58:23.935Z,102244.63
2023-04-02T12:01:05.521Z,102249.69
2023-04-02T12:03:35.110Z,102238.56
2023-04-02T12:06:13.433Z,102242.84
2023-04-02T12:08:58.485Z,102242.50
2023-04-02T12:11:34.812Z,102245.03
2023-04-02T12:14:07.629Z,102243.66
2023-04-02T12:16:35.533Z,102256.97
2023-04-02T12:19:02.620Z,102246.41
2023-04-02T12:21:30.048Z,102244.63
2023-04-02T12:23:59.494Z,102245.75
2023-04-02T12:26:38.512Z,102240.03
2023-04-02T12:29:39.082Z,102237.97
2023-04-02T12:32:19.394Z,102233.91
2023-04-02T12:34:52.840Z,102241.59
2023-04-02T12:37:25.265Z,102247.66
2023-04-02T12:40:16.122Z,102244.59
2023-04-02T12:42:42.760Z,102247.13
2023-04-02T12:45:26.172Z,102246.75
2023-04-02T12:47:55.091Z,102258.75
2023-04-02T12:50:22.898Z,102259.59
2023-04-02T12:52:55.124Z,102266.44
2023-04-02T12:55:26.897Z,102256.28
2023-04-02T12:58:00.266Z,102255.19
2023-04-02T13:00:30.392Z,102244.25
2023-04-02T13:03:17.964Z,102249.94
2023-04-02T13:05:50.160Z,102249.34
2023-04-02T13:08:28.891Z,102251.69
2023-04-02T13:11:01.230Z,102256.53
2023-04-02T13:13:32.951Z,102262.75
2023-04-02T13:16:24.498Z,102257.03
2023-04-02T13:18:51.284Z,102264.22
2023-04-02T13:21:21.173Z,102257.91
2023-04-02T13:23:48.045Z,102259.59
2023-04-02T13:26:22.180Z,102256.81
2023-04-02T13:28:57.528Z,102252.84
2023-04-02T13:31:24.240Z,102257.97
2023-04-02T13:33:51.320Z,102250.47
2023-04-02T13:36:18.316Z,102241.00
2023-04-02T13:38:44.989Z,102247.41
2023-04-02T13:41:25.292Z,102244.78
2023-04-02T13:43:53.697Z,102245.13
2023-04-02T13:46:26.551Z,102246.28
2023-04-02T13:48:54.980Z,102246.00
2023-04-02T13:51:46.483Z,102244.84
2023-04-02T13:54:31.474Z,102242.56
2023-04-02T13:56:58.297Z,102245.03
2023-04-02T13:59:26.133Z,102252.72
2023-04-02T14:01:57.865Z,102252.53
2023-04-02T14:04:29.273Z,102254.31
2023-04-02T14:07:27.374Z,102252.72
2023-04-02T14:10:01.475Z,102256.97
2023-04-02T14:12:34.622Z,102257.63
2023-04-02T14:15:15.206Z,102261.22
2023-04-02T14:18:12.834Z,102257.63
2023-04-02T14:21:00.985Z,102270.03
2023-04-02T14:23:44.832Z,102274.97
2023-04-02T14:26:30.319Z,102273.78
2023-04-02T14:29:07.395Z,102268.34
2023-04-02T14:31:41.124Z,102265.63
2023-04-02T14:34:41.846Z,102264.31
2023-04-02T14:37:36.858Z,102261.47
2023-04-02T14:40:12.118Z,102266.19
2023-04-02T14:43:02.047Z,102276.00
2023-04-02T14:45:53.929Z,102276.16
2023-04-02T14:48:30.483Z,102282.84
2023-04-02T14:51:07.664Z,102282.38
2023-04-02T14:53:52.916Z,102277.63
2023-04-02T14:56:21.949Z,102273.66
2023-04-02T14:58:55.655Z,102272.03
2023-04-02T15:01:31.640Z,102268.72
2023-04-02T15:04:06.173Z,102265.91
2023-04-02T15:06:41.795Z,102267.66
2023-04-02T15:09:20.381Z,102261.72
2023-04-02T15:11:53.959Z,102269.47
2023-04-02T15:14:41.353Z,102267.44
2023-04-02T15:17:11.806Z,102266.31
2023-04-02T15:19:38.496Z,102266.00
2023-04-02T15:22:08.731Z,102265.88
2023-04-02T15:24:50.665Z,102273.06
2023-04-02T15:27:35.603Z,102270.78
2023-04-02T15:30:23.632Z,102257.03
2023-04-02T15:32:51.188Z,102256.88
2023-04-02T15:35:32.811Z,102256.44
2023-04-02T15:38:13.109Z,102255.47
2023-04-02T15:41:07.209Z,102253.19
2023-04-02T15:44:04.413Z,102259.91
2023-04-02T15:46:50.713Z,102251.63
2023-04-02T15:49:54.411Z,102250.81
2023-04-02T15:52:59.421Z,102243.94
2023-04-02T15:55:48.003Z,102240.03
2023-04-02T15:58:35.594Z,102230.53
2023-04-02T16:01:24.626Z,102229.72
2023-04-02T16:04:20.604Z,102221.56
2023-04-02T16:06:59.318Z,102236.31
2023-04-02T16:09:38.963Z,102231.22
2023-04-02T16:12:14.929Z,102231.56
2023-04-02T16:14:44.952Z,102225.84
2023-04-02T16:17:25.316Z,102222.44
2023-04-02T16:20:23.878Z,102223.44
2023-04-02T16:23:01.077Z,102220.97
2023-04-02T16:25:57.393Z,102229.63
2023-04-02T16:28:57.000Z,102227.81
2023-04-02T16:31:45.218Z,102232.75
2023-04-02T16:34:42.318Z,102232.56
2023-04-02T16:37:49.697Z,102226.34
2023-04-02T16:40:35.295Z,102234.69
2023-04-02T16:43:11.382Z,102240.44
2023-04-02T16:45:48.325Z,102240.78
2023-04-02T16:48:47.653Z,102235.88
2023-04-02T16:51:37.276Z,102237.34
2023-04-02T16:54:26.875Z,102234.88
2023-04-02T16:57:03.828Z,102226.03
2023-04-02T17:00:10.571Z,102231.78
2023-04-02T17:03:01.769Z,102235.84
2023-04-02T17:05:32.927Z,102234.50
2023-04-02T17:08:17.962Z,102234.31
2023-04-02T17:10:50.448Z,102230.06
2023-04-02T17:13:32.568Z,102231.78
2023-04-02T17:16:06.501Z,102224.56
2023-04-02T17:18:34.857Z,102228.75
2023-04-02T17:21:08.968Z,102220.38
2023-04-02T17:24:05.061Z,102226.19
2023-04-02T17:26:37.319Z,102225.81
2023-04-02T17:29:09.603Z,102219.56
2023-04-02T17:31:38.031Z,102227.00
2023-04-02T17:34:17.005Z,102232.59
2023-04-02T17:36:58.642Z,102228.47
2023-04-02T17:39:49.182Z,102233.44
2023-04-02T17:42:47.091Z,102237.88
2023-04-02T17:45:30.133Z,102241.22
2023-04-02T17:48:35.639Z,102236.53
2023-04-02T17:51:41.984Z,102238.00
2023-04-02T17:54:31.116Z,102238.72
2023-04-02T17:57:00.737Z,102232.28
2023-04-02T17:59:53.806Z,102234.94
2023-04-02T18:02:23.599Z,102234.25
2023-04-02T18:04:59.300Z,102239.06
2023-04-02T18:07:40.984Z,102241.84
2023-04-02T18:10:25.840Z,102238.75
2023-04-02T18:13:02.772Z,102244.81
2023-04-02T18:15:38.019Z,102237.63
2023-04-02T18:18:11.500Z,102236.06
2023-04-02T18:21:03.191Z,102234.50
2023-04-02T18:23:56.565Z,102244.53
2023-04-02T18:26:32.697Z,102243.53
2023-04-02T18:29:35.792Z,102240.81
2023-04-02T18:32:39.189Z,102241.03
2023-04-02T18:35:31.648Z,102234.56
2023-04-02T18:38:04.647Z,102242.22
2023-04-02T18:41:00.010Z,102240.97
2023-04-02T18:43:36.349Z,102237.16
2023-04-02T18:46:08.828Z,102237.22
2023-04-02T18:48:42.678Z,102230.44
2023-04-02T18:51:16.581Z,102228.06
2023-04-02T18:53:43.729Z,102236.44
2023-04-02T18:56:15.778Z,102227.13
2023-04-02T18:58:53.182Z,102224.44
2023-04-02T19:01:30.695Z,102230.31
2023-04-02T19:04:13.865Z,102240.34
2023-04-02T19:06:47.730Z,102239.81
2023-04-02T19:09:34.077Z,102232.72
2023-04-02T19:12:01.418Z,102235.25
2023-04-02T19:14:29.967Z,102233.41
2023-04-02T19:17:14.770Z,102241.44
2023-04-02T19:19:59.480Z,102240.63
2023-04-02T19:23:00.232Z,102246.38
2023-04-02T19:25:46.102Z,102248.56
2023-04-02T19:28:22.251Z,102253.03
2023-04-02T19:31:11.879Z,102249.22
2023-04-02T19:34:03.234Z,102252.50
2023-04-02T19:36:45.884Z,102246.16
2023-04-02T19:39:46.586Z,102248.16
2023-04-02T19:42:16.333Z,102252.34
2023-04-02T19:44:48.324Z,102247.72
2023-04-02T19:47:17.425Z,102257.09
2023-04-02T19:49:44.578Z,102249.19
2023-04-02T19:52:11.276Z,102253.38
2023-04-02T19:54:38.501Z,102257.25
2023-04-02T19:57:05.947Z,102257.84
2023-04-02T19:59:32.678Z,102246.56
2023-04-02T20:01:59.456Z,102251.56
2023-04-02T20:04:28.281Z,102248.00
2023-04-02T20:06:55.546Z,102248.50
2023-04-02T20:09:22.435Z,102255.72
2023-04-02T20:11:49.666Z,102243.06
2023-04-02T20:14:16.650Z,102238.38
2023-04-02T20:16:44.640Z,102243.66
2023-04-02T20:19:12.638Z,102236.25
2023-04-02T20:21:39.396Z,102240.13
2023-04-02T20:24:07.591Z,102230.25
2023-04-02T20:26:35.313Z,102227.81
2023-04-02T20:29:02.135Z,102242.44
2023-04-02T20:31:31.050Z,102247.19
2023-04-02T20:33:59.178Z,102239.47
2023-04-02T20:36:29.168Z,102241.72
2023-04-02T20:38:57.475Z,102245.63
2023-04-02T20:41:24.390Z,102249.25
2023-04-02T20:43:51.410Z,102244.84
2023-04-02T20:46:18.314Z,102247.59
2023-04-02T20:48:45.313Z,102245.69
2023-04-02T20:51:15.528Z,102252.88
2023-04-02T20:53:42.470Z,102246.56
2023-04-02T20:56:17.067Z,102242.72
2023-04-02T20:58:44.557Z,102250.19
2023-04-02T21:01:15.642Z,102250.75
2023-04-02T21:03:42.662Z,102253.50
2023-04-02T21:06:17.724Z,102246.44
2023-04-02T21:08:45.389Z,102242.00
2023-04-02T21:11:12.636Z,102252.22
2023-04-02T21:13:42.459Z,102250.03
2023-04-02T21:16:29.729Z,102249.81
2023-04-02T21:18:58.603Z,102256.16
2023-04-02T21:21:25.918Z,102251.50
2023-04-02T21:24:00.582Z,102273.56
2023-04-02T21:26:29.521Z,102271.09
2023-04-02T21:28:56.180Z,102260.94
2023-04-02T21:31:25.993Z,102260.94
2023-04-02T21:33:55.706Z,102257.38
2023-04-02T21:36:31.363Z,102263.16
2023-04-02T21:39:09.262Z,102256.00
2023-04-02T21:41:41.286Z,102248.59
2023-04-02T21:44:10.039Z,102254.94
2023-04-02T21:46:38.913Z,102257.16
2023-04-02T21:49:08.143Z,102258.56
2023-04-02T21:51:37.084Z,102259.97
2023-04-02T21:54:04.372Z,102256.91
2023-04-02T21:56:33.343Z,102265.47
2023-04-02T21:59:02.076Z,102256.09
2023-04-02T22:01:40.929Z,102257.47
2023-04-02T22:04:09.453Z,102250.59
2023-04-02T22:06:39.646Z,102255.03
2023-04-02T22:09:10.509Z,102244.56
2023-04-02T22:11:40.796Z,102239.06
2023-04-02T22:14:07.741Z,102251.22
2023-04-02T22:16:36.525Z,102244.13
2023-04-02T22:19:05.646Z,102240.84
2023-04-02T22:21:32.733Z,102240.03
2023-04-02T22:24:01.736Z,102240.88
2023-04-02T22:26:29.546Z,102233.72
2023-04-02T22:28:56.301Z,102245.84
2023-04-02T22:31:27.873Z,102238.97
2023-04-02T22:33:55.745Z,102243.66
2023-04-02T22:36:23.468Z,102232.69
2023-04-02T22:38:51.912Z,102240.13
2023-04-02T22:41:22.505Z,102228.88
2023-04-02T22:43:49.546Z,102237.41
2023-04-02T22:46:18.257Z,102227.78
2023-04-02T22:48:46.521Z,102233.31
2023-04-02T22:51:15.507Z,102233.31
2023-04-02T22:53:43.151Z,102231.13
2023-04-02T22:56:12.871Z,102236.09
2023-04-02T22:58:40.183Z,102236.09
2023-04-02T23:01:15.949Z,102233.91
2023-04-02T23:03:43.088Z,102227.88
2023-04-02T23:06:12.048Z,102230.94
2023-04-02T23:08:39.600Z,102228.44
2023-04-02T23:11:09.702Z,102237.81
2023-04-02T23:13:37.305Z,102235.06
2023-04-02T23:16:06.635Z,102233.41
2023-04-02T23:18:35.353Z,102231.19
2023-04-02T23:21:02.767Z,102232.31
2023-04-02T23:23:29.514Z,102232.31
2023-04-02T23:26:07.428Z,102234.50
2023-04-02T23:28:35.729Z,102230.13
2023-04-02T23:31:04.388Z,102229.59
2023-04-02T23:33:31.204Z,102234.81
2023-04-02T23:35:58.595Z,102230.97
2023-04-02T23:38:26.548Z,102235.41
2023-04-02T23:40:53.946Z,102218.06
2023-04-02T23:43:20.742Z,102211.72
2023-04-02T23:45:51.154Z,102209.53
2023-04-02T23:48:17.844Z,102218.06
2023-04-02T23:50:45.591Z,102211.50
2023-04-02T23:53:13.288Z,102201.06
2023-04-02T23:55:40.489Z,102198.34
2023-04-02T23:58:07.350Z,102195.84
